createdAt,value
2023-11-26T00:00:14.519Z,98574.13
2023-11-26T00:02:42.079Z,98573.06
2023-11-26T00:05:09.408Z,98570.34
2023-11-26T00:07:36.434Z,98575.44
2023-11-26T00:10:03.758Z,98579.28
2023-11-26T00:12:30.842Z,98579.19
2023-11-26T00:14:57.826Z,98578.69
2023-11-26T00:17:25.743Z,98575.66
2023-11-26T00:19:52.935Z,98576.28
2023-11-26T00:22:19.868Z,98582.81
2023-11-26T00:24:47.152Z,98594.41
2023-11-26T00:27:14.119Z,98585.69
2023-11-26T00:29:44.241Z,98601.03
2023-11-26T00:32:11.766Z,98598.88
2023-11-26T00:34:39.068Z,98598.66
2023-11-26T00:37:06.069Z,98599.16
2023-11-26T00:39:34.091Z,98598.22
2023-11-26T00:42:01.192Z,98597.78
2023-11-26T00:44:28.468Z,98610.03
2023-11-26T00:46:55.689Z,98602.97
2023-11-26T00:49:23.308Z,98610.13
2023-11-26T00:51:50.285Z,98606.59
2023-11-26T00:54:17.926Z,98610.31
2023-11-26T00:56:44.876Z,98609.28
2023-11-26T00:59:11.943Z,98612.72
2023-11-26T01:01:38.954Z,98619.75
2023-11-26T01:04:08.786Z,98622.34
2023-11-26T01:06:36.884Z,98623.59
2023-11-26T01:09:23.701Z,98628.00
2023-11-26T01:11:53.538Z,98634.06
2023-11-26T01:14:20.945Z,98642.25
2023-11-26T01:16:50.720Z,98637.69
2023-11-26T01:19:18.139Z,98649.88
2023-11-26T01:21:45.983Z,98649.63
2023-11-26T01:24:12.984Z,98651.59
2023-11-26T01:26:41.192Z,98649.09
2023-11-26T01:29:08.748Z,98654.19
2023-11-26T01:31:35.927Z,98657.56
2023-11-26T01:34:04.934Z,98658.75
2023-11-26T01:37:03.498Z,98659.03
2023-11-26T01:39:30.810Z,98663.16
2023-11-26T01:41:58.622Z,98668.06
2023-11-26T01:44:27.656Z,98663.44
2023-11-26T01:46:56.362Z,98662.72
2023-11-26T01:49:26.552Z,98663.69
2023-11-26T01:51:54.004Z,98666.41
2023-11-26T01:54:21.730Z,98657.34
2023-11-26T01:56:49.106Z,98665.47
2023-11-26T01:59:16.292Z,98664.47
2023-11-26T02:01:46.379Z,98670.44
2023-11-26T02:04:14.092Z,98654.50
2023-11-26T02:06:41.049Z,98651.06
2023-11-26T02:09:09.036Z,98659.75
2023-11-26T02:11:35.876Z,98676.00
2023-11-26T02:14:02.721Z,98683.53
2023-11-26T02:16:29.767Z,98678.03
2023-11-26T02:18:56.568Z,98684.69
2023-11-26T02:21:23.349Z,98683.75
2023-11-26T02:23:51.037Z,98681.88
2023-11-26T02:26:18.154Z,98683.66
2023-11-26T02:28:45.317Z,98671.84
2023-11-26T02:31:12.080Z,98676.47
2023-11-26T02:33:54.063Z,98677.31
2023-11-26T02:36:23.406Z,98678.31
2023-11-26T02:38:50.176Z,98672.69
2023-11-26T02:41:16.918Z,98676.22
2023-11-26T02:43:44.030Z,98678.03
2023-11-26T02:46:11.164Z,98679.13
2023-11-26T02:48:38.181Z,98682.31
2023-11-26T02:51:04.960Z,98678.69
2023-11-26T02:53:31.754Z,98697.44
2023-11-26T02:55:58.679Z,98702.06
2023-11-26T02:58:25.629Z,98696.88
2023-11-26T03:00:52.847Z,98693.47
2023-11-26T03:03:20.962Z,98697.09
2023-11-26T03:05:51.846Z,98707.34
2023-11-26T03:08:33.735Z,98704.47
2023-11-26T03:11:19.336Z,98713.16
2023-11-26T03:13:46.301Z,98715.09
2023-11-26T03:16:13.790Z,98720.88
2023-11-26T03:18:40.711Z,98717.63
2023-11-26T03:21:08.580Z,98716.19
2023-11-26T03:23:35.376Z,98719.66
2023-11-26T03:26:02.228Z,98730.22
2023-11-26T03:28:29.145Z,98724.97
2023-11-26T03:30:58.172Z,98729.16
2023-11-26T03:33:28.240Z,98717.16
2023-11-26T03:35:55.484Z,98724.91
2023-11-26T03:38:22.316Z,98718.72
2023-11-26T03:40:49.339Z,98723.69
2023-11-26T03:43:16.644Z,98734.66
2023-11-26T03:45:43.794Z,98723.81
2023-11-26T03:48:10.846Z,98727.84
2023-11-26T03:50:37.721Z,98728.78
2023-11-26T03:53:04.642Z,98724.03
2023-11-26T03:55:31.892Z,98724.84
2023-11-26T03:57:58.674Z,98733.44
2023-11-26T04:00:25.595Z,98737.03
2023-11-26T04:02:52.530Z,98722.69
2023-11-26T04:05:19.609Z,98728.13
2023-11-26T04:07:46.485Z,98731.22
2023-11-26T04:10:19.595Z,98736.31
2023-11-26T04:12:51.222Z,98727.91
2023-11-26T04:15:24.457Z,98736.75
2023-11-26T04:17:51.778Z,98730.06
2023-11-26T04:20:18.645Z,98731.84
2023-11-26T04:22:45.917Z,98738.44
2023-11-26T04:25:13.403Z,98743.09
2023-11-26T04:27:40.261Z,98739.59
2023-11-26T04:30:09.177Z,98753.06
2023-11-26T04:32:36.112Z,98746.91
2023-11-26T04:35:03.104Z,98755.00
2023-11-26T04:37:30.794Z,98749.09
2023-11-26T04:39:59.303Z,98748.28
2023-11-26T04:42:28.922Z,98758.22
2023-11-26T04:44:56.274Z,98753.25
2023-11-26T04:47:25.459Z,98758.69
2023-11-26T04:49:57.780Z,98755.84
2023-11-26T04:52:25.180Z,98762.91
2023-11-26T04:54:55.264Z,98764.22
2023-11-26T04:57:25.318Z,98751.41
2023-11-26T04:59:56.184Z,98766.22
2023-11-26T05:02:26.336Z,98753.53
2023-11-26T05:04:54.160Z,98756.06
2023-11-26T05:07:24.334Z,98763.31
2023-11-26T05:09:54.046Z,98772.28
2023-11-26T05:12:25.130Z,98772.19
2023-11-26T05:14:55.628Z,98770.63
2023-11-26T05:17:25.461Z,98773.03
2023-11-26T05:19:52.904Z,98765.84
2023-11-26T05:22:22.214Z,98777.03
2023-11-26T05:24:49.514Z,98772.78
2023-11-26T05:27:17.077Z,98775.41
2023-11-26T05:29:44.811Z,98779.66
2023-11-26T05:32:13.496Z,98775.16
2023-11-26T05:34:41.207Z,98777.81
2023-11-26T05:37:08.621Z,98784.03
2023-11-26T05:39:36.701Z,98773.22
2023-11-26T05:42:04.681Z,98776.84
2023-11-26T05:44:32.770Z,98778.53
2023-11-26T05:47:02.417Z,98780.47
2023-11-26T05:49:30.344Z,98786.19
2023-11-26T05:51:59.500Z,98783.75
2023-11-26T05:54:28.223Z,98784.94
2023-11-26T05:56:55.593Z,98786.19
2023-11-26T05:59:22.870Z,98784.91
2023-11-26T06:01:50.445Z,98783.94
2023-11-26T06:04:18.410Z,98781.81
2023-11-26T06:06:48.207Z,98792.78
2023-11-26T06:09:18.365Z,98798.84
2023-11-26T06:11:46.972Z,98810.16
2023-11-26T06:14:14.784Z,98806.97
2023-11-26T06:16:45.111Z,98811.44
2023-11-26T06:19:13.138Z,98818.03
2023-11-26T06:21:40.184Z,98813.03
2023-11-26T06:24:09.463Z,98809.91
2023-11-26T06:26:42.033Z,98811.81
2023-11-26T06:29:12.759Z,98812.72
2023-11-26T06:31:41.105Z,98806.34
2023-11-26T06:34:10.964Z,98806.03
2023-11-26T06:36:38.955Z,98821.66
2023-11-26T06:39:12.271Z,98810.16
2023-11-26T06:41:43.303Z,98812.97
2023-11-26T06:44:12.333Z,98815.63
2023-11-26T06:46:40.542Z,98835.31
2023-11-26T06:49:08.970Z,98824.78
2023-11-26T06:51:36.626Z,98830.97
2023-11-26T06:54:07.358Z,98834.88
2023-11-26T06:56:34.281Z,98826.53
2023-11-26T06:59:03.913Z,98830.97
2023-11-26T07:01:33.782Z,98824.78
2023-11-26T07:04:04.829Z,98824.78
2023-11-26T07:06:37.277Z,98825.75
2023-11-26T07:09:10.664Z,98815.06
2023-11-26T07:11:37.904Z,98820.59
2023-11-26T07:14:05.644Z,98814.91
2023-11-26T07:16:34.818Z,98827.75
2023-11-26T07:19:02.494Z,98828.13
2023-11-26T07:21:31.145Z,98828.78
2023-11-26T07:23:58.349Z,98821.97
2023-11-26T07:26:27.759Z,98814.56
2023-11-26T07:28:55.542Z,98817.75
2023-11-26T07:31:24.931Z,98821.34
2023-11-26T07:33:52.796Z,98821.28
2023-11-26T07:36:25.109Z,98812.72
2023-11-26T07:38:55.286Z,98815.22
2023-11-26T07:41:23.738Z,98825.38
2023-11-26T07:43:54.933Z,98830.56
2023-11-26T07:46:23.449Z,98834.59
2023-11-26T07:48:52.118Z,98841.09
2023-11-26T07:51:19.520Z,98835.63
2023-11-26T07:53:47.098Z,98838.13
2023-11-26T07:56:14.408Z,98834.06
2023-11-26T07:58:46.989Z,98843.81
2023-11-26T08:01:14.427Z,98855.78
2023-11-26T08:03:43.341Z,98847.47
2023-11-26T08:06:14.898Z,98855.94
2023-11-26T08:08:46.105Z,98846.00
2023-11-26T08:11:15.430Z,98847.38
2023-11-26T08:13:46.751Z,98842.59
2023-11-26T08:16:17.310Z,98852.09
2023-11-26T08:18:45.057Z,98846.59
2023-11-26T08:21:13.677Z,98848.09
2023-11-26T08:23:52.279Z,98848.06
2023-11-26T08:26:22.894Z,98834.34
2023-11-26T08:28:50.087Z,98842.56
2023-11-26T08:31:18.667Z,98844.44
2023-11-26T08:33:50.303Z,98839.56
2023-11-26T08:36:20.940Z,98839.56
2023-11-26T08:38:50.041Z,98836.03
2023-11-26T08:41:22.862Z,98848.97
2023-11-26T08:43:52.858Z,98845.28
2023-11-26T08:46:23.647Z,98853.06
2023-11-26T08:48:54.629Z,98856.75
2023-11-26T08:51:23.559Z,98845.75
2023-11-26T08:53:50.958Z,98860.09
2023-11-26T08:56:20.081Z,98862.34
2023-11-26T08:58:48.091Z,98861.03
2023-11-26T09:01:15.631Z,98859.09
2023-11-26T09:03:42.986Z,98853.44
2023-11-26T09:06:10.808Z,98854.28
2023-11-26T09:08:43.101Z,98858.53
2023-11-26T09:11:16.048Z,98858.06
2023-11-26T09:13:46.944Z,98850.69
2023-11-26T09:16:14.437Z,98842.25
2023-11-26T09:18:48.209Z,98851.03
2023-11-26T09:21:19.877Z,98846.41
2023-11-26T09:23:57.744Z,98848.91
2023-11-26T09:26:28.655Z,98852.06
2023-11-26T09:28:58.676Z,98844.75
2023-11-26T09:31:25.929Z,98842.13
2023-11-26T09:33:53.360Z,98845.09
2023-11-26T09:36:20.989Z,98849.31
2023-11-26T09:38:51.846Z,98849.25
2023-11-26T09:41:20.935Z,98852.28
2023-11-26T09:43:48.787Z,98848.47
2023-11-26T09:46:17.612Z,98832.13
2023-11-26T09:48:48.346Z,98844.94
2023-11-26T09:51:17.911Z,98843.91
2023-11-26T09:53:48.477Z,98832.91
2023-11-26T09:56:17.593Z,98831.34
2023-11-26T09:58:45.021Z,98832.44
2023-11-26T10:01:13.284Z,98833.56
2023-11-26T10:04:06.364Z,98830.81
2023-11-26T10:06:35.456Z,98828.66
2023-11-26T10:09:19.256Z,98822.13
2023-11-26T10:11:50.483Z,98820.50
2023-11-26T10:14:19.711Z,98830.88
2023-11-26T10:16:48.313Z,98815.72
2023-11-26T10:19:27.387Z,98813.56
2023-11-26T10:22:01.921Z,98810.34
2023-11-26T10:24:30.631Z,98798.56
2023-11-26T10:26:59.755Z,98803.00
2023-11-26T10:29:31.809Z,98797.41
2023-11-26T10:32:08.738Z,98788.72
2023-11-26T10:34:37.457Z,98790.47
2023-11-26T10:37:20.995Z,98790.00
2023-11-26T10:39:52.902Z,98789.91
2023-11-26T10:42:23.214Z,98794.25
2023-11-26T10:44:54.425Z,98789.44
2023-11-26T10:47:22.954Z,98785.91
2023-11-26T10:49:54.539Z,98777.03
2023-11-26T10:52:41.533Z,98787.63
2023-11-26T10:55:11.838Z,98783.06
2023-11-26T10:57:41.107Z,98790.84
2023-11-26T11:00:14.749Z,98782.69
2023-11-26T11:02:46.263Z,98777.69
2023-11-26T11:05:17.187Z,98777.19
2023-11-26T11:07:44.920Z,98778.25
2023-11-26T11:13:25.233Z,98771.72
2023-11-26T11:15:52.690Z,98777.94
2023-11-26T11:18:49.386Z,98768.09
2023-11-26T11:21:18.528Z,98770.41
2023-11-26T11:23:47.914Z,98775.44
2023-11-26T11:26:16.861Z,98768.19
2023-11-26T11:28:49.453Z,98765.41
2023-11-26T11:31:43.502Z,98763.53
2023-11-26T11:34:20.445Z,98762.59
2023-11-26T11:36:54.367Z,98766.84
2023-11-26T11:39:23.123Z,98757.22
2023-11-26T11:42:31.658Z,98760.53
2023-11-26T11:45:27.760Z,98759.72
2023-11-26T11:47:55.698Z,98752.81
2023-11-26T11:50:31.228Z,98756.69
2023-11-26T11:53:05.263Z,98753.34
2023-11-26T11:55:35.274Z,98750.75
2023-11-26T11:58:12.412Z,98745.97
2023-11-26T12:00:40.261Z,98744.94
2023-11-26T12:03:07.578Z,98749.72
2023-11-26T12:05:34.613Z,98747.44
2023-11-26T12:08:02.113Z,98749.41
2023-11-26T12:10:32.444Z,98736.44
2023-11-26T12:13:08.111Z,98734.78
2023-11-26T12:15:36.547Z,98740.09
2023-11-26T12:18:04.049Z,98731.34
2023-11-26T12:20:34.815Z,98726.69
2023-11-26T12:23:02.005Z,98726.16
2023-11-26T12:25:29.321Z,98726.25
2023-11-26T12:28:07.383Z,98719.59
2023-11-26T12:30:37.685Z,98717.00
2023-11-26T12:33:05.635Z,98711.72
2023-11-26T12:35:38.324Z,98719.69
2023-11-26T12:38:08.125Z,98715.66
2023-11-26T12:40:37.553Z,98713.78
2023-11-26T12:43:05.272Z,98720.44
2023-11-26T12:45:32.898Z,98709.19
2023-11-26T12:47:59.972Z,98710.47
2023-11-26T12:50:44.908Z,98699.44
2023-11-26T12:53:16.542Z,98705.25
2023-11-26T12:55:47.570Z,98710.13
2023-11-26T12:58:20.010Z,98705.44
2023-11-26T13:00:47.879Z,98711.84
2023-11-26T13:03:18.377Z,98705.00
2023-11-26T13:05:48.297Z,98701.34
2023-11-26T13:08:23.416Z,98696.50
2023-11-26T13:11:00.121Z,98693.22
2023-11-26T13:13:34.401Z,98695.63
2023-11-26T13:16:06.744Z,98701.25
2023-11-26T13:18:37.194Z,98687.53
2023-11-26T13:21:08.357Z,98685.56
2023-11-26T13:23:42.762Z,98693.75
2023-11-26T13:26:11.742Z,98686.69
2023-11-26T13:28:41.866Z,98688.53
2023-11-26T13:31:15.373Z,98685.22
2023-11-26T13:33:46.022Z,98694.13
2023-11-26T13:36:15.381Z,98695.59
2023-11-26T13:38:42.807Z,98689.34
2023-11-26T13:41:10.169Z,98701.38
2023-11-26T13:43:39.082Z,98686.00
2023-11-26T13:46:09.157Z,98684.34
2023-11-26T13:48:38.566Z,98686.75
2023-11-26T13:51:08.925Z,98679.81
2023-11-26T13:53:36.181Z,98674.81
2023-11-26T13:56:03.628Z,98693.03
2023-11-26T13:58:34.274Z,98685.25
2023-11-26T14:01:01.408Z,98681.19
2023-11-26T14:03:31.430Z,98679.44
2023-11-26T14:06:00.669Z,98677.34
2023-11-26T14:08:27.712Z,98679.00
2023-11-26T14:10:55.531Z,98677.09
2023-11-26T14:13:22.804Z,98686.25
2023-11-26T14:15:52.842Z,98669.91
2023-11-26T14:18:26.405Z,98681.75
2023-11-26T14:20:54.907Z,98677.41
2023-11-26T14:23:28.198Z,98672.31
2023-11-26T14:25:55.526Z,98660.00
2023-11-26T14:28:22.932Z,98659.56
2023-11-26T14:30:51.232Z,98658.97
2023-11-26T14:33:19.112Z,98658.00
2023-11-26T14:35:49.211Z,98656.97
2023-11-26T14:38:21.109Z,98654.34
2023-11-26T14:40:48.268Z,98650.94
2023-11-26T14:43:15.494Z,98650.34
2023-11-26T14:45:48.659Z,98652.25
2023-11-26T14:48:16.201Z,98654.16
2023-11-26T14:50:45.679Z,98654.25
2023-11-26T14:53:14.595Z,98656.53
2023-11-26T14:55:41.822Z,98652.59
2023-11-26T14:58:09.471Z,98660.78
2023-11-26T15:00:41.193Z,98663.75
2023-11-26T15:03:09.600Z,98657.13
2023-11-26T15:05:37.240Z,98661.50
2023-11-26T15:08:08.977Z,98669.28
2023-11-26T15:10:35.936Z,98659.44
2023-11-26T15:13:03.191Z,98662.16
2023-11-26T15:15:30.061Z,98666.69
2023-11-26T15:17:57.335Z,98666.31
2023-11-26T15:20:27.487Z,98655.16
2023-11-26T15:22:59.963Z,98656.47
2023-11-26T15:25:27.914Z,98656.91
2023-11-26T15:27:55.498Z,98657.59
2023-11-26T15:30:22.510Z,98660.41
2023-11-26T15:32:50.040Z,98658.50
2023-11-26T15:35:18.333Z,98659.25
2023-11-26T15:37:45.904Z,98665.25
2023-11-26T15:40:17.484Z,98655.47
2023-11-26T15:42:45.252Z,98657.81
2023-11-26T15:45:14.842Z,98647.63
2023-11-26T15:47:42.537Z,98652.59
2023-11-26T15:50:10.404Z,98649.06
2023-11-26T15:52:37.751Z,98645.66
2023-11-26T15:55:07.227Z,98653.06
2023-11-26T15:57:34.392Z,98644.09
2023-11-26T16:00:01.498Z,98630.94
2023-11-26T16:02:28.554Z,98646.19
2023-11-26T16:04:59.834Z,98645.97
2023-11-26T16:07:27.843Z,98650.69
2023-11-26T16:09:55.311Z,98636.16
2023-11-26T16:12:22.508Z,98638.44
2023-11-26T16:14:49.708Z,98647.69
2023-11-26T16:17:26.850Z,98645.06
2023-11-26T16:19:59.438Z,98640.78
2023-11-26T16:22:26.671Z,98646.25
2023-11-26T16:24:53.783Z,98646.72
2023-11-26T16:27:20.598Z,98653.59
2023-11-26T16:29:47.573Z,98644.03
2023-11-26T16:32:14.482Z,98640.59
2023-11-26T16:34:41.583Z,98641.44
2023-11-26T16:37:10.226Z,98642.72
2023-11-26T16:39:37.455Z,98633.50
2023-11-26T16:42:07.839Z,98638.38
2023-11-26T16:44:42.452Z,98642.59
2023-11-26T16:47:09.539Z,98638.34
2023-11-26T16:49:36.443Z,98635.38
2023-11-26T16:52:04.365Z,98637.53
2023-11-26T16:54:32.133Z,98636.34
2023-11-26T16:56:59.088Z,98642.69
2023-11-26T16:59:26.954Z,98631.09
2023-11-26T17:01:54.550Z,98639.09
2023-11-26T17:04:22.678Z,98650.34
2023-11-26T17:06:49.686Z,98645.28
2023-11-26T17:09:17.635Z,98647.78
2023-11-26T17:11:44.897Z,98638.66
2023-11-26T17:14:11.811Z,98645.50
2023-11-26T17:16:40.052Z,98637.84
2023-11-26T17:19:07.588Z,98643.03
2023-11-26T17:21:39.152Z,98643.84
2023-11-26T17:24:06.506Z,98643.38
2023-11-26T17:26:33.626Z,98643.91
2023-11-26T17:29:00.837Z,98657.47
2023-11-26T17:31:29.386Z,98651.63
2023-11-26T17:33:57.122Z,98646.66
2023-11-26T17:36:24.536Z,98640.75
2023-11-26T17:38:51.490Z,98650.94
2023-11-26T17:41:18.668Z,98646.34
2023-11-26T17:43:45.666Z,98636.63
2023-11-26T17:46:12.911Z,98631.81
2023-11-26T17:48:40.409Z,98643.53
2023-11-26T17:51:07.870Z,98639.25
2023-11-26T17:53:36.034Z,98644.44
2023-11-26T17:56:06.112Z,98641.16
2023-11-26T17:58:33.346Z,98646.06
2023-11-26T18:01:00.533Z,98654.09
2023-11-26T18:03:27.657Z,98651.91
2023-11-26T18:05:54.757Z,98641.34
2023-11-26T18:08:22.822Z,98634.50
2023-11-26T18:10:50.422Z,98642.47
2023-11-26T18:13:17.447Z,98638.09
2023-11-26T18:15:44.987Z,98631.59
2023-11-26T18:18:12.235Z,98639.75
2023-11-26T18:20:39.358Z,98640.09
2023-11-26T18:23:06.976Z,98631.72
2023-11-26T18:25:35.404Z,98627.34
2023-11-26T18:28:02.457Z,98620.72
2023-11-26T18:30:29.744Z,98616.91
2023-11-26T18:32:57.003Z,98625.75
2023-11-26T18:35:26.543Z,98616.22
2023-11-26T18:37:55.865Z,98614.56
2023-11-26T18:40:22.802Z,98617.41
2023-11-26T18:42:51.051Z,98610.56
2023-11-26T18:45:19.194Z,98604.53
2023-11-26T18:47:47.089Z,98609.59
2023-11-26T18:50:14.245Z,98604.53
2023-11-26T18:52:41.231Z,98607.84
2023-11-26T18:55:08.668Z,98591.41
2023-11-26T18:57:35.739Z,98587.88
2023-11-26T19:00:03.948Z,98601.31
2023-11-26T19:02:31.068Z,98604.16
2023-11-26T19:04:58.218Z,98613.03
2023-11-26T19:07:25.442Z,98604.53
2023-11-26T19:09:52.413Z,98606.66
2023-11-26T19:12:19.233Z,98602.38
2023-11-26T19:14:47.724Z,98602.38
2023-11-26T19:17:14.796Z,98607.25
2023-11-26T19:19:42.464Z,98600.63
2023-11-26T19:22:09.818Z,98603.09
2023-11-26T19:24:37.778Z,98592.72
2023-11-26T19:27:05.065Z,98603.91
2023-11-26T19:29:31.972Z,98603.47
2023-11-26T19:31:59.456Z,98607.16
2023-11-26T19:34:26.417Z,98603.13
2023-11-26T19:36:53.311Z,98603.03
2023-11-26T19:39:20.892Z,98610.56
2023-11-26T19:41:47.874Z,98601.00
2023-11-26T19:44:15.617Z,98599.47
2023-11-26T19:46:43.032Z,98596.75
2023-11-26T19:49:10.445Z,98598.78
2023-11-26T19:51:37.900Z,98590.38
2023-11-26T19:54:05.725Z,98599.97
2023-11-26T19:56:39.020Z,98600.44
2023-11-26T19:59:07.571Z,98595.25
2023-11-26T20:01:35.036Z,98594.66
2023-11-26T20:04:02.252Z,98594.66
2023-11-26T20:06:29.344Z,98592.75
2023-11-26T20:08:56.692Z,98585.06
2023-11-26T20:11:24.619Z,98586.28
2023-11-26T20:13:52.512Z,98584.25
2023-11-26T20:16:25.934Z,98584.84
2023-11-26T20:18:55.416Z,98591.91
2023-11-26T20:21:23.129Z,98588.25
2023-11-26T20:23:51.608Z,98585.91
2023-11-26T20:26:21.795Z,98583.88
2023-11-26T20:28:48.961Z,98573.59
2023-11-26T20:31:16.055Z,98576.31
2023-11-26T20:33:43.253Z,98571.72
2023-11-26T20:36:19.260Z,98568.19
2023-11-26T20:38:46.588Z,98567.72
2023-11-26T20:41:13.942Z,98563.09
2023-11-26T20:43:41.167Z,98560.97
2023-11-26T20:46:08.240Z,98561.91
2023-11-26T20:48:35.602Z,98561.56
2023-11-26T20:51:02.706Z,98566.88
2023-11-26T20:53:29.759Z,98561.66
2023-11-26T20:55:56.637Z,98550.66
2023-11-26T20:58:26.532Z,98552.47
2023-11-26T21:00:55.264Z,98547.97
2023-11-26T21:03:22.882Z,98556.59
2023-11-26T21:05:52.406Z,98547.59
2023-11-26T21:08:19.342Z,98545.94
2023-11-26T21:10:46.293Z,98545.13
2023-11-26T21:13:13.795Z,98541.47
2023-11-26T21:15:40.720Z,98544.19
2023-11-26T21:18:08.129Z,98543.22
2023-11-26T21:20:35.031Z,98541.81
2023-11-26T21:23:01.930Z,98536.84
2023-11-26T21:25:28.926Z,98530.13
2023-11-26T21:27:56.674Z,98536.72
2023-11-26T21:30:23.900Z,98537.09
2023-11-26T21:32:51.117Z,98537.56
2023-11-26T21:35:18.692Z,98518.16
2023-11-26T21:37:45.562Z,98519.47
2023-11-26T21:40:13.825Z,98526.56
2023-11-26T21:42:41.078Z,98521.38
2023-11-26T21:45:08.574Z,98509.63
2023-11-26T21:47:36.312Z,98510.38
2023-11-26T21:50:03.603Z,98514.03
2023-11-26T21:52:30.808Z,98508.09
2023-11-26T21:54:58.392Z,98507.78
2023-11-26T21:57:25.914Z,98513.66
2023-11-26T21:59:52.842Z,98515.56
2023-11-26T22:02:19.810Z,98509.78
2023-11-26T22:04:47.901Z,98500.91
2023-11-26T22:07:15.254Z,98499.00
2023-11-26T22:09:43.188Z,98495.34
2023-11-26T22:12:10.121Z,98496.28
2023-11-26T22:14:37.865Z,98495.94
2023-11-26T22:17:05.493Z,98493.56
2023-11-26T22:19:32.578Z,98492.16
2023-11-26T22:22:01.864Z,98497.38
2023-11-26T22:24:29.204Z,98496.63
2023-11-26T22:26:56.087Z,98495.94
2023-11-26T22:29:23.711Z,98490.97
2023-11-26T22:31:51.133Z,98482.44
2023-11-26T22:34:20.520Z,98487.44
2023-11-26T22:36:48.235Z,98485.78
2023-11-26T22:39:17.959Z,98488.50
2023-11-26T22:41:44.786Z,98487.75
2023-11-26T22:44:11.850Z,98487.66
2023-11-26T22:46:40.309Z,98488.97
2023-11-26T22:49:07.494Z,98484.25
2023-11-26T22:51:35.042Z,98486.22
2023-11-26T22:54:02.640Z,98488.59
2023-11-26T22:56:29.656Z,98480.44
2023-11-26T22:58:56.731Z,98484.69
2023-11-26T23:01:24.376Z,98482.44
2023-11-26T23:03:53.052Z,98480.31
2023-11-26T23:06:20.130Z,98483.88
2023-11-26T23:08:47.337Z,98488.22
2023-11-26T23:11:17.768Z,98491.69
2023-11-26T23:13:45.231Z,98495.00
2023-11-26T23:16:12.834Z,98488.59
2023-11-26T23:18:40.484Z,98484.34
2023-11-26T23:21:09.643Z,98489.06
2023-11-26T23:23:42.643Z,98487.28
2023-11-26T23:26:17.378Z,98477.38
2023-11-26T23:28:44.368Z,98482.72
2023-11-26T23:31:18.599Z,98477.25
2023-11-26T23:33:47.632Z,98474.53
2023-11-26T23:36:15.588Z,98481.03
2023-11-26T23:38:44.581Z,98474.44
2023-11-26T23:41:12.617Z,98476.31
2023-11-26T23:43:41.127Z,98475.63
2023-11-26T23:46:08.472Z,98472.91
2023-11-26T23:48:35.660Z,98471.09
2023-11-26T23:51:03.015Z,98463.31
2023-11-26T23:53:30.579Z,98453.75
2023-11-26T23:55:57.443Z,98464.72
2023-11-26T23:58:24.353Z,98471.47
